Main page
METAR-TAF:

METAR-TAF

Airports :

Christchurch, New Zealand

Christchurch International Airport

latitude: 43-29S, longitude: 172-33E, elevation: 38 m

Current weather observation

The report was made 30 minutes ago, at 19:00 UTC
Wind 9 kt from the West/Southwest, varying between South/Southwest and West/Northwest
Temperature 14°C
Humidity 67%
Pressure 1015 hPa
Visibility 10 km or more

METAR: NZCH 171900Z AUTO 24009KT 210V290 9999 BKN065/// 14/08 Q1015 NOSIG

Time: 08:30 (19:30 UTC)

Forecast

The report was made 2 hours and 28 minutes ago, at 17:02 UTC
Forecast valid from 17 at 18 UTC to 18 at 18 UTC
Wind 10 kt from the Southwest
Visibility 10 km or more
Few clouds at a height of 4000 ft
Becoming
from 18 at 02 UTC to 18 at 04 UTC
Wind 10 kt from the East/Northeast
Becoming
from 18 at 13 UTC to 18 at 15 UTC
Wind 2 kt from variable directions

TAF: NZCH 171702Z 1718/1818 22010KT 9999 FEW040 BECMG 1802/1804 06010KT BECMG 1813/1815 VRB02KT

Weather observations and forecasts of more than 4000 airports (METAR and TAF reports).

The available stations are represented by yellow and red dots on the map.

Hover mouse over dot to see the name of the station.

Then click to see weather observations and forecasts.

To change the map : click on the green buttons with a black cross to zoom in, on the green button with a dash to zoom out, or on the green arrows for adjacent maps.


METAR-TAF: